Palm Beach, FL

8:25 AM EDT on October 20, 2014 (GMT -0400)
Witham | Change Station
CLOSE
Current Station
Airport
Location: Stuart,
Elevation: 20 ft
Nearby Weather Stations

Elev 20 ft 27.18 °N, 80.22 °W | Updated 38 minutes ago

Mostly Cloudy
Mostly Cloudy
66 °F
Feels Like 66 °F
N
0
Wind Variable Wind from North

Today
High -- | Low -- °F
--% Chance of Precip.
Yesterday
High -- | Low -- °F
Precip. -- in
7:22 AM 6:47 PM
Waning Crescent, 11% visible
Pressure 30.03 in
Visibility 7.0 miles
Clouds Few 4000 ft
Dew Point 64 °F
Humidity 94%
Rainfall 0.00 in
Snow Depth Not available.
UV 0 out of 12
Pollen 4.50 out of 12
Ozone Good
PM2.5 Good
Flu Activity Local Activity
METAR KSUA 201147Z 00000KT 7SM FEW040 19/18 A3003

More Conditions Fewer Conditions

Pressure 30.03 in
Visibility 7.0 miles
Clouds Few 4000 ft
Dew Point 64 °F
Humidity 94%
Rainfall 0.00 in
Snow Depth Not available.
UV 0 out of 12
Pollen 4.50 out of 12
Ozone Good
PM2.5 Good
Flu Activity Local Activity
METAR KSUA 201147Z 00000KT 7SM FEW040 19/18 A3003

More Conditions Fewer Conditions

10-Day Weather Forecast

Almanac

Astronomy

Oct. 20, 2014 Rise Set
Actual Time 7:22 AM EDT 6:47 PM EDT
Civil Twilight 6:58 AM EDT 7:10 PM EDT
Nautical Twilight 6:31 AM EDT 7:37 PM EDT
Astronomical Twilight 6:04 AM EDT 8:04 PM EDT
Moon 4:26 AM EDT 4:54 PM EDT
Length of Visible Light 12h 11m
Length of Day
11h 24m
Waning Crescent, 11% of the Moon is Illuminated
Today
Waning Crescent
Oct 23
New
Oct 30
First Quarter
Nov 6
Full
Nov 14
Last Quarter

Today's Extremes

State Highs State Lows

Community

WunderPhotos

Upload Photos

1,763,349 photos uploaded!

WunderBlogs® & News

Nearby

Air Quality

  Air Quality AQ Index Pollutant
Yesterday Good
PM2.5
Yesterday Good
OZONE
Current Good
PM2.5
Current Good
OZONE
Monday Good
OZONE
Monday Good
PM2.5

Snow Depth

Station Depth Elevation
No new snow has been reported.

Earthquake Activity

City Distance Mag. Time & Date
No recent earthquake activity has been reported nearby.
Minimum magnitude displayed is 2.5.

Coastal Water Temperatures

Place Temperature
Lake Worth, FL 82.9 °F
Virginia Key, FL 81.0 °F

Nearby Weather Stations